Terminal Aerodrome Forecast
Issued by NWS

Home | Current Version | Previous Version | Text Only | Print | Product List | Glossary On
Versions: 1 2 3 4 5 6 7 8 9 10 11 12 13 14
038
FTUS42 KFFC 302338
TAFRYY
TAF
KRYY 302338Z 0100/0124 16008G15KT P6SM VCSH BKN045
      TEMPO 0101/0103 5SM -SHRA BKN025
     FM010300 17009KT P6SM SCT015 SCT050 BKN250
     FM010700 17010G18KT P6SM VCSH BKN012 BKN020
     FM011000 19012G22KT 5SM -RA BR BKN012 OVC020 PROB30 0110/0112
      3SM TSRA BKN012CB OVC022
     FM011200 19012G22KT 4SM -TSRA SCT008 BKN012CB
     FM011500 23012G22KT P6SM VCSH SCT018 BKN030
     FM011700 23012G22KT P6SM SCT050
      AMD NOT SKED 0104/0112=

USA.gov is the U.S. government's official web portal to all federal, state and local government web resources and services.